createdAt,value
2023-02-27T00:01:22.117Z,60.13
2023-02-27T00:04:46.020Z,60.28
2023-02-27T00:08:10.195Z,60.83
2023-02-27T00:11:34.118Z,69.89
2023-02-27T00:14:58.000Z,70.80
2023-02-27T00:18:22.865Z,55.43
2023-02-27T00:21:46.810Z,50.52
2023-02-27T00:25:11.802Z,52.30
2023-02-27T00:28:35.918Z,54.17
2023-02-27T00:32:00.370Z,55.39
2023-02-27T00:35:24.627Z,56.33
2023-02-27T00:38:48.626Z,57.04
2023-02-27T00:42:12.577Z,57.78
2023-02-27T00:45:36.425Z,58.14
2023-02-27T00:49:00.334Z,58.40
2023-02-27T00:52:24.668Z,59.00
2023-02-27T00:55:49.027Z,59.60
2023-02-27T00:59:13.009Z,60.38
2023-02-27T01:02:37.084Z,60.91
2023-02-27T01:06:01.132Z,61.41
2023-02-27T01:09:25.164Z,73.36
2023-02-27T01:12:49.070Z,71.40
2023-02-27T01:16:13.991Z,57.28
2023-02-27T01:19:38.142Z,51.11
2023-02-27T01:23:02.066Z,52.79
2023-02-27T01:26:26.231Z,55.35
2023-02-27T01:29:50.347Z,56.62
2023-02-27T01:33:14.607Z,57.54
2023-02-27T01:36:38.510Z,57.92
2023-02-27T01:40:02.465Z,58.64
2023-02-27T01:43:27.155Z,59.11
2023-02-27T01:46:51.048Z,59.80
2023-02-27T01:50:17.515Z,60.57
2023-02-27T01:53:44.956Z,60.94
2023-02-27T01:57:09.875Z,61.48
2023-02-27T02:00:34.082Z,61.78
2023-02-27T02:04:07.236Z,73.32
2023-02-27T02:07:31.295Z,72.56
2023-02-27T02:10:58.016Z,58.54
2023-02-27T02:14:22.022Z,51.71
2023-02-27T02:18:01.224Z,53.44
2023-02-27T02:21:47.064Z,55.80
2023-02-27T02:25:38.955Z,56.66
2023-02-27T02:29:21.836Z,57.77
2023-02-27T02:33:23.648Z,59.23
2023-02-27T02:36:59.996Z,59.75
2023-02-27T02:40:34.498Z,60.00
2023-02-27T02:44:19.946Z,60.54
2023-02-27T02:48:02.051Z,61.11
2023-02-27T02:51:42.214Z,61.35
2023-02-27T02:55:29.293Z,75.90
2023-02-27T02:59:22.599Z,70.25
2023-02-27T03:02:58.920Z,57.12
2023-02-27T03:06:31.633Z,52.67
2023-02-27T03:10:11.984Z,54.64
2023-02-27T03:13:35.990Z,56.87
2023-02-27T03:17:06.680Z,57.72
2023-02-27T03:20:43.556Z,58.57
2023-02-27T03:24:12.445Z,59.38
2023-02-27T03:27:42.662Z,60.54
2023-02-27T03:31:38.691Z,61.11
2023-02-27T03:35:04.858Z,60.93
2023-02-27T03:39:05.756Z,61.24
2023-02-27T03:42:30.197Z,61.58
2023-02-27T03:46:02.998Z,72.30
2023-02-27T03:49:27.411Z,72.22
2023-02-27T03:52:51.454Z,59.88
2023-02-27T03:56:19.124Z,52.34
2023-02-27T03:59:43.798Z,54.38
2023-02-27T04:03:08.219Z,57.31
2023-02-27T04:06:51.849Z,58.65
2023-02-27T04:10:21.471Z,60.79
2023-02-27T04:14:06.922Z,61.93
2023-02-27T04:17:33.464Z,76.73
2023-02-27T04:21:07.131Z,64.66
2023-02-27T04:25:03.199Z,55.23
2023-02-27T04:28:41.816Z,55.25
2023-02-27T04:32:35.844Z,58.12
2023-02-27T04:36:13.203Z,59.27
2023-02-27T04:39:52.021Z,60.73
2023-02-27T04:43:17.823Z,60.99
2023-02-27T04:46:44.521Z,61.79
2023-02-27T04:50:19.638Z,72.95
2023-02-27T04:53:47.871Z,68.52
2023-02-27T04:57:19.474Z,56.52
2023-02-27T05:00:48.257Z,53.76
2023-02-27T05:04:15.685Z,56.80
2023-02-27T05:07:45.020Z,58.83
2023-02-27T05:11:30.080Z,60.38
2023-02-27T05:15:03.194Z,60.45
2023-02-27T05:18:27.323Z,72.28
2023-02-27T05:22:01.379Z,67.65
2023-02-27T05:25:48.152Z,55.31
2023-02-27T05:29:38.205Z,53.38
2023-02-27T05:33:05.512Z,56.45
2023-02-27T05:36:36.943Z,58.45
2023-02-27T05:40:08.696Z,59.47
2023-02-27T05:43:38.948Z,61.34
2023-02-27T05:47:10.694Z,65.10
2023-02-27T05:50:41.069Z,74.59
2023-02-27T05:54:34.630Z,60.38
2023-02-27T05:58:14.106Z,53.87
2023-02-27T06:01:38.209Z,55.73
2023-02-27T06:05:02.289Z,58.79
2023-02-27T06:08:26.689Z,59.80
2023-02-27T06:11:50.815Z,60.79
2023-02-27T06:15:14.810Z,69.43
2023-02-27T06:18:38.722Z,70.12
2023-02-27T06:22:02.702Z,60.66
2023-02-27T06:25:26.682Z,53.62
2023-02-27T06:28:50.632Z,55.37
2023-02-27T06:32:14.621Z,57.73
2023-02-27T06:35:38.842Z,59.51
2023-02-27T06:39:02.920Z,60.27
2023-02-27T06:42:27.789Z,61.23
2023-02-27T06:45:55.400Z,70.89
2023-02-27T06:49:19.316Z,69.48
2023-02-27T06:52:43.225Z,57.46
2023-02-27T06:56:07.786Z,53.81
2023-02-27T06:59:32.045Z,55.80
2023-02-27T07:02:55.998Z,57.45
2023-02-27T07:06:20.051Z,60.08
2023-02-27T07:09:44.100Z,60.29
2023-02-27T07:13:07.994Z,61.36
2023-02-27T07:16:32.105Z,71.78
2023-02-27T07:19:56.181Z,66.78
2023-02-27T07:23:20.118Z,57.74
2023-02-27T07:27:24.858Z,54.36
2023-02-27T07:29:54.110Z,56.49
2023-02-27T07:32:23.062Z,58.14
2023-02-27T07:34:52.084Z,58.87
2023-02-27T07:37:21.080Z,60.29
2023-02-27T07:39:50.905Z,61.28
2023-02-27T07:42:19.905Z,68.36
2023-02-27T07:44:48.894Z,70.52
2023-02-27T07:47:18.013Z,59.64
2023-02-27T07:49:46.992Z,51.92
2023-02-27T07:52:15.994Z,52.13
2023-02-27T07:54:44.885Z,54.63
2023-02-27T07:57:14.540Z,56.67
2023-02-27T07:59:43.494Z,57.81
2023-02-27T08:02:12.910Z,58.56
2023-02-27T08:04:42.044Z,59.16
2023-02-27T08:07:11.100Z,60.92
2023-02-27T08:09:39.996Z,60.86
2023-02-27T08:12:08.947Z,68.05
2023-02-27T08:14:38.844Z,70.32
2023-02-27T08:17:08.202Z,58.91
2023-02-27T08:19:37.138Z,52.04
2023-02-27T08:22:06.038Z,52.62
2023-02-27T08:24:35.040Z,54.30
2023-02-27T08:27:04.107Z,55.89
2023-02-27T08:29:33.244Z,57.25
2023-02-27T08:32:03.032Z,58.00
2023-02-27T08:34:31.954Z,58.82
2023-02-27T08:37:00.885Z,59.74
2023-02-27T08:39:29.786Z,60.18
2023-02-27T08:41:58.846Z,60.66
2023-02-27T08:44:27.732Z,61.24
2023-02-27T08:46:56.675Z,70.01
2023-02-27T08:49:25.926Z,68.02
2023-02-27T08:51:55.065Z,55.82
2023-02-27T08:54:24.093Z,51.65
2023-02-27T08:56:55.813Z,52.84
2023-02-27T08:59:24.995Z,53.92
2023-02-27T09:01:53.895Z,54.41
2023-02-27T09:04:22.862Z,55.34
2023-02-27T09:06:53.723Z,56.14
2023-02-27T09:09:25.767Z,56.90
2023-02-27T09:11:54.684Z,58.09
2023-02-27T09:14:24.230Z,59.14
2023-02-27T09:16:53.303Z,58.89
2023-02-27T09:19:22.489Z,58.57
2023-02-27T09:21:51.474Z,58.86
2023-02-27T09:24:21.103Z,59.95
2023-02-27T09:26:51.898Z,59.76
2023-02-27T09:29:21.549Z,60.23
2023-02-27T09:31:50.687Z,66.91
2023-02-27T09:34:19.847Z,65.76
2023-02-27T09:36:48.879Z,53.27
2023-02-27T09:39:18.100Z,49.43
2023-02-27T09:42:18.080Z,50.18
2023-02-27T09:44:59.913Z,51.56
2023-02-27T09:47:38.602Z,52.71
2023-02-27T09:50:13.251Z,53.08
2023-02-27T09:52:42.130Z,53.05
2023-02-27T09:55:19.743Z,53.73
2023-02-27T09:58:04.557Z,54.65
2023-02-27T10:00:41.894Z,54.58
2023-02-27T10:03:56.536Z,57.10
2023-02-27T10:06:48.505Z,55.54
2023-02-27T10:09:44.638Z,56.27
2023-02-27T10:12:25.183Z,55.91
2023-02-27T10:15:05.990Z,55.94
2023-02-27T10:17:44.703Z,57.14
2023-02-27T10:20:36.886Z,56.81
2023-02-27T10:23:14.992Z,55.96
2023-02-27T10:25:48.493Z,56.49
2023-02-27T10:28:20.731Z,57.71
2023-02-27T10:30:56.768Z,55.78
2023-02-27T10:33:32.370Z,57.69
2023-02-27T10:36:03.193Z,56.19
2023-02-27T10:38:37.629Z,55.65
2023-02-27T10:41:10.662Z,55.92
2023-02-27T10:43:41.265Z,56.94
2023-02-27T10:46:16.437Z,56.49
2023-02-27T10:48:46.360Z,56.46
2023-02-27T10:51:28.104Z,57.62
2023-02-27T10:54:19.222Z,57.44
2023-02-27T10:56:52.418Z,57.57
2023-02-27T10:59:28.780Z,58.01
2023-02-27T11:02:01.033Z,57.50
2023-02-27T11:04:38.202Z,57.63
2023-02-27T11:07:12.215Z,56.80
2023-02-27T11:09:41.505Z,56.06
2023-02-27T11:12:26.138Z,55.33
2023-02-27T11:14:58.540Z,55.81
2023-02-27T11:17:34.208Z,56.14
2023-02-27T11:20:28.960Z,56.53
2023-02-27T11:23:23.327Z,56.16
2023-02-27T11:26:17.533Z,56.43
2023-02-27T11:28:46.476Z,56.84
2023-02-27T11:31:23.455Z,57.05
2023-02-27T11:33:59.015Z,56.97
2023-02-27T11:36:48.732Z,57.06
2023-02-27T11:39:37.821Z,56.69
2023-02-27T11:42:16.435Z,57.99
2023-02-27T11:44:53.343Z,56.98
2023-02-27T11:47:34.694Z,57.08
2023-02-27T11:50:26.132Z,57.29
2023-02-27T11:53:16.992Z,56.23
2023-02-27T11:55:48.154Z,56.40
2023-02-27T11:58:21.083Z,56.50
2023-02-27T12:00:54.790Z,57.70
2023-02-27T12:03:42.850Z,55.79
2023-02-27T12:06:28.617Z,54.54
2023-02-27T12:09:31.783Z,54.40
2023-02-27T12:12:02.817Z,53.34
2023-02-27T12:14:57.220Z,53.06
2023-02-27T12:17:40.641Z,52.32
2023-02-27T12:20:42.484Z,53.17
2023-02-27T12:23:36.376Z,52.17
2023-02-27T12:26:18.679Z,53.62
2023-02-27T12:29:20.054Z,56.50
2023-02-27T12:31:59.973Z,55.48
2023-02-27T12:34:44.181Z,56.10
2023-02-27T12:37:25.890Z,55.91
2023-02-27T12:39:58.209Z,56.47
2023-02-27T12:42:48.926Z,57.01
2023-02-27T12:45:39.557Z,57.54
2023-02-27T12:48:42.501Z,57.04
2023-02-27T12:51:31.761Z,56.72
2023-02-27T12:54:16.146Z,57.25
2023-02-27T12:57:13.755Z,57.77
2023-02-27T12:59:53.015Z,56.88
2023-02-27T13:02:43.968Z,57.56
2023-02-27T13:05:32.493Z,56.05
2023-02-27T13:08:25.586Z,55.55
2023-02-27T13:11:06.228Z,55.32
2023-02-27T13:13:42.096Z,55.88
2023-02-27T13:16:20.463Z,56.08
2023-02-27T13:19:04.671Z,55.78
2023-02-27T13:21:42.828Z,55.49
2023-02-27T13:24:31.422Z,56.76
2023-02-27T13:27:22.349Z,56.09
2023-02-27T13:30:03.236Z,55.16
2023-02-27T13:32:48.809Z,56.61
2023-02-27T13:35:29.192Z,56.39
2023-02-27T13:38:05.449Z,56.32
2023-02-27T13:40:41.339Z,55.44
2023-02-27T13:43:40.480Z,54.56
2023-02-27T13:46:27.008Z,55.78
2023-02-27T13:49:28.761Z,54.98
2023-02-27T13:52:02.223Z,53.76
2023-02-27T13:54:34.355Z,54.65
2023-02-27T13:57:28.738Z,54.02
2023-02-27T14:00:05.063Z,53.40
2023-02-27T14:02:58.259Z,53.39
2023-02-27T14:05:45.000Z,53.74
2023-02-27T14:08:29.412Z,55.15
2023-02-27T14:11:10.061Z,55.21
2023-02-27T14:13:51.176Z,54.32
2023-02-27T14:16:38.299Z,54.34
2023-02-27T14:19:16.354Z,55.09
2023-02-27T14:21:51.105Z,54.73
2023-02-27T14:24:29.035Z,54.62
2023-02-27T14:26:58.163Z,55.85
2023-02-27T14:29:31.510Z,55.19
2023-02-27T14:32:07.074Z,56.00
2023-02-27T14:34:38.399Z,55.82
2023-02-27T14:37:14.006Z,55.72
2023-02-27T14:39:44.073Z,55.42
2023-02-27T14:42:37.839Z,55.45
2023-02-27T14:45:15.357Z,55.56
2023-02-27T14:47:45.773Z,55.90
2023-02-27T14:50:41.064Z,56.07
2023-02-27T14:53:23.599Z,56.30
2023-02-27T14:55:54.752Z,56.55
2023-02-27T14:58:25.111Z,56.44
2023-02-27T15:01:07.648Z,56.62
2023-02-27T15:03:48.482Z,55.97
2023-02-27T15:06:31.592Z,56.51
2023-02-27T15:09:00.757Z,56.42
2023-02-27T15:11:30.171Z,56.55
2023-02-27T15:14:02.769Z,56.96
2023-02-27T15:16:37.412Z,56.70
2023-02-27T15:19:14.317Z,56.66
2023-02-27T15:21:55.157Z,57.38
2023-02-27T15:24:48.843Z,56.73
2023-02-27T15:27:22.880Z,56.50
2023-02-27T15:29:56.043Z,56.69
2023-02-27T15:32:32.436Z,56.71
2023-02-27T15:35:15.036Z,56.76
2023-02-27T15:37:50.514Z,57.00
2023-02-27T15:40:23.005Z,57.13
2023-02-27T15:42:53.395Z,56.97
2023-02-27T15:45:26.520Z,57.24
2023-02-27T15:47:55.869Z,56.97
2023-02-27T15:50:41.319Z,56.98
2023-02-27T15:53:27.847Z,56.72
2023-02-27T15:56:04.686Z,56.76
2023-02-27T15:58:37.685Z,56.95
2023-02-27T16:01:13.665Z,57.13
2023-02-27T16:03:45.734Z,57.02
2023-02-27T16:06:23.593Z,57.25
2023-02-27T16:09:23.849Z,57.51
2023-02-27T16:12:11.211Z,57.35
2023-02-27T16:14:43.433Z,57.31
2023-02-27T16:17:32.845Z,57.53
2023-02-27T16:20:36.259Z,57.45
2023-02-27T16:23:14.805Z,57.52
2023-02-27T16:26:20.925Z,57.90
2023-02-27T16:29:02.756Z,57.87
2023-02-27T16:31:34.848Z,58.08
2023-02-27T16:34:16.394Z,58.45
2023-02-27T16:36:57.784Z,58.55
2023-02-27T16:39:27.132Z,58.52
2023-02-27T16:41:57.468Z,58.78
2023-02-27T16:44:26.911Z,59.06
2023-02-27T16:46:58.781Z,59.07
2023-02-27T16:49:32.076Z,59.30
2023-02-27T16:52:03.445Z,59.46
2023-02-27T16:54:35.496Z,59.62
2023-02-27T16:57:04.687Z,59.74
2023-02-27T16:59:40.439Z,59.89
2023-02-27T17:02:14.632Z,60.12
2023-02-27T17:04:44.523Z,60.29
2023-02-27T17:07:17.354Z,60.52
2023-02-27T17:09:48.141Z,60.72
2023-02-27T17:12:17.057Z,60.76
2023-02-27T17:14:45.976Z,60.79
2023-02-27T17:17:14.958Z,61.02
2023-02-27T17:19:47.618Z,61.26
2023-02-27T17:22:18.058Z,61.22
2023-02-27T17:24:46.987Z,61.58
2023-02-27T17:27:16.094Z,61.78
2023-02-27T17:29:45.011Z,61.86
2023-02-27T17:32:13.894Z,62.07
2023-02-27T17:34:42.939Z,62.14
2023-02-27T17:37:11.864Z,63.63
2023-02-27T17:39:41.250Z,75.49
2023-02-27T17:42:12.718Z,66.69
2023-02-27T17:44:43.456Z,58.79
2023-02-27T17:47:14.696Z,51.36
2023-02-27T17:49:43.769Z,51.24
2023-02-27T17:52:12.673Z,52.34
2023-02-27T17:54:41.690Z,53.46
2023-02-27T17:57:13.361Z,54.59
2023-02-27T17:59:43.487Z,55.37
2023-02-27T18:02:13.304Z,56.20
2023-02-27T18:04:42.917Z,57.15
2023-02-27T18:07:11.836Z,57.78
2023-02-27T18:09:40.813Z,58.34
2023-02-27T18:12:09.760Z,58.51
2023-02-27T18:14:38.680Z,59.15
2023-02-27T18:17:12.038Z,59.49
2023-02-27T18:19:42.238Z,59.87
2023-02-27T18:22:15.211Z,59.99
2023-02-27T18:24:44.114Z,60.55
2023-02-27T18:27:13.109Z,61.01
2023-02-27T18:29:42.003Z,61.32
2023-02-27T18:32:11.029Z,61.62
2023-02-27T18:34:41.495Z,61.89
2023-02-27T18:37:11.027Z,61.99
2023-02-27T18:39:42.305Z,62.06
2023-02-27T18:42:11.174Z,69.79
2023-02-27T18:44:41.500Z,75.64
2023-02-27T18:47:12.137Z,66.52
2023-02-27T18:49:41.221Z,57.89
2023-02-27T18:52:10.305Z,50.52
2023-02-27T18:54:40.987Z,51.11
2023-02-27T18:57:10.466Z,53.02
2023-02-27T18:59:41.611Z,54.24
2023-02-27T19:02:14.232Z,54.98
2023-02-27T19:04:43.447Z,55.81
2023-02-27T19:07:12.346Z,56.94
2023-02-27T19:09:42.122Z,57.44
2023-02-27T19:12:11.073Z,57.67
2023-02-27T19:14:40.649Z,58.37
2023-02-27T19:17:09.639Z,59.02
2023-02-27T19:19:38.643Z,59.53
2023-02-27T19:22:07.600Z,59.72
2023-02-27T19:24:36.473Z,60.10
2023-02-27T19:27:05.739Z,60.45
2023-02-27T19:29:34.659Z,60.75
2023-02-27T19:32:04.363Z,61.15
2023-02-27T19:34:33.847Z,61.47
2023-02-27T19:37:02.745Z,61.66
2023-02-27T19:39:31.667Z,61.82
2023-02-27T19:42:00.568Z,68.23
2023-02-27T19:44:29.541Z,75.71
2023-02-27T19:46:58.486Z,64.83
2023-02-27T19:49:27.417Z,56.54
2023-02-27T19:51:56.324Z,50.83
2023-02-27T19:54:25.276Z,51.86
2023-02-27T19:56:54.508Z,53.35
2023-02-27T19:59:24.741Z,55.20
2023-02-27T20:01:53.640Z,56.15
2023-02-27T20:04:22.584Z,56.84
2023-02-27T20:06:53.767Z,57.49
2023-02-27T20:09:23.443Z,58.74
2023-02-27T20:11:58.198Z,59.21
2023-02-27T20:14:28.068Z,59.52
2023-02-27T20:16:57.103Z,59.89
2023-02-27T20:19:26.168Z,60.20
2023-02-27T20:21:56.566Z,60.85
2023-02-27T20:24:27.416Z,61.02
2023-02-27T20:26:59.151Z,61.58
2023-02-27T20:29:28.401Z,66.89
2023-02-27T20:31:57.578Z,75.76
2023-02-27T20:34:27.093Z,65.77
2023-02-27T20:36:57.652Z,56.43
2023-02-27T20:39:28.172Z,51.35
2023-02-27T20:41:57.121Z,52.66
2023-02-27T20:44:26.071Z,53.91
2023-02-27T20:46:55.423Z,55.57
2023-02-27T20:49:25.114Z,56.83
2023-02-27T20:51:54.107Z,57.77
2023-02-27T20:54:22.977Z,58.65
2023-02-27T20:56:52.742Z,59.17
2023-02-27T20:59:25.261Z,59.08
2023-02-27T21:01:55.445Z,59.50
2023-02-27T21:04:47.531Z,60.45
2023-02-27T21:07:21.393Z,60.74
2023-02-27T21:09:51.112Z,61.30
2023-02-27T21:12:20.057Z,61.96
2023-02-27T21:14:49.443Z,72.29
2023-02-27T21:17:18.406Z,74.79
2023-02-27T21:19:47.349Z,63.79
2023-02-27T21:22:17.236Z,54.11
2023-02-27T21:24:47.480Z,51.86
2023-02-27T21:27:19.816Z,53.33
2023-02-27T21:29:50.901Z,55.10
2023-02-27T21:32:19.838Z,56.52
2023-02-27T21:34:48.774Z,57.82
2023-02-27T21:37:17.683Z,58.25
2023-02-27T21:39:52.407Z,59.22
2023-02-27T21:42:22.286Z,59.32
2023-02-27T21:44:51.287Z,59.80
2023-02-27T21:47:20.921Z,61.08
2023-02-27T21:49:51.575Z,61.42
2023-02-27T21:52:20.543Z,61.80
2023-02-27T21:54:50.552Z,70.82
2023-02-27T21:57:21.595Z,75.35
2023-02-27T21:59:50.546Z,64.70
2023-02-27T22:02:19.497Z,56.03
2023-02-27T22:04:48.443Z,52.32
2023-02-27T22:07:17.348Z,53.67
2023-02-27T22:09:50.129Z,55.35
2023-02-27T22:12:19.168Z,56.99
2023-02-27T22:14:48.677Z,58.16
2023-02-27T22:17:17.640Z,58.84
2023-02-27T22:19:47.995Z,59.67
2023-02-27T22:22:16.963Z,60.34
2023-02-27T22:24:45.867Z,60.17
2023-02-27T22:27:14.808Z,60.74
2023-02-27T22:29:43.683Z,61.04
2023-02-27T22:32:12.690Z,61.60
2023-02-27T22:34:41.604Z,71.12
2023-02-27T22:37:10.537Z,73.65
2023-02-27T22:39:39.420Z,61.27
2023-02-27T22:42:08.315Z,52.54
2023-02-27T22:44:37.236Z,52.01
2023-02-27T22:47:06.111Z,53.94
2023-02-27T22:49:35.163Z,55.42
2023-02-27T22:52:04.247Z,56.65
2023-02-27T22:54:33.125Z,57.77
2023-02-27T22:57:02.072Z,58.40
2023-02-27T22:59:31.006Z,59.67
2023-02-27T23:01:59.925Z,60.47
2023-02-27T23:04:28.998Z,60.77
2023-02-27T23:06:58.035Z,61.02
2023-02-27T23:09:27.544Z,61.41
2023-02-27T23:11:56.589Z,62.00
2023-02-27T23:14:25.476Z,72.20
2023-02-27T23:16:54.506Z,73.35
2023-02-27T23:19:23.427Z,64.41
2023-02-27T23:21:52.405Z,59.78
2023-02-27T23:24:21.322Z,53.59
2023-02-27T23:26:52.564Z,53.50
2023-02-27T23:29:21.810Z,55.30
2023-02-27T23:31:51.037Z,56.59
2023-02-27T23:34:20.085Z,57.17
2023-02-27T23:36:49.058Z,58.13
2023-02-27T23:39:17.988Z,59.89
2023-02-27T23:41:46.924Z,60.19
2023-02-27T23:44:34.335Z,60.58
2023-02-27T23:47:03.343Z,60.76
2023-02-27T23:49:32.225Z,61.58
2023-02-27T23:52:01.106Z,68.54
2023-02-27T23:54:30.065Z,74.87
2023-02-27T23:56:58.989Z,63.77
2023-02-27T23:59:28.140Z,54.69
